sensor_id;sensor_type;location;lat;lon;timestamp;pressure;altitude;pressure_sealevel;temperature;humidity
19447;BME280;9862;49.462;11.054;2023-04-01T00:02:23;96595.88;;;10.30;100.00
19447;BME280;9862;49.462;11.054;2023-04-01T00:04:51;96589.50;;;10.48;100.00
19447;BME280;9862;49.462;11.054;2023-04-01T00:07:18;96589.59;;;10.53;100.00
19447;BME280;9862;49.462;11.054;2023-04-01T00:09:47;96584.41;;;10.63;100.00
19447;BME280;9862;49.462;11.054;2023-04-01T00:12:14;96585.03;;;10.70;100.00
19447;BME280;9862;49.462;11.054;2023-04-01T00:14:41;96578.91;;;10.70;100.00
19447;BME280;9862;49.462;11.054;2023-04-01T00:17:09;96572.31;;;10.55;100.00
19447;BME280;9862;49.462;11.054;2023-04-01T00:19:36;96577.16;;;10.58;100.00
19447;BME280;9862;49.462;11.054;2023-04-01T00:22:03;96579.41;;;10.67;100.00
19447;BME280;9862;49.462;11.054;2023-04-01T00:24:30;96579.22;;;10.73;100.00
19447;BME280;9862;49.462;11.054;2023-04-01T00:26:58;96577.00;;;10.65;100.00
19447;BME280;9862;49.462;11.054;2023-04-01T00:29:25;96572.50;;;10.49;100.00
19447;BME280;9862;49.462;11.054;2023-04-01T00:31:55;96579.00;;;10.41;100.00
19447;BME280;9862;49.462;11.054;2023-04-01T00:34:22;96574.44;;;10.37;100.00
19447;BME280;9862;49.462;11.054;2023-04-01T00:36:51;96576.19;;;10.48;100.00
19447;BME280;9862;49.462;11.054;2023-04-01T00:39:19;96575.75;;;10.34;100.00
19447;BME280;9862;49.462;11.054;2023-04-01T00:41:47;96584.59;;;10.40;100.00
19447;BME280;9862;49.462;11.054;2023-04-01T00:44:20;96580.41;;;10.44;100.00
19447;BME280;9862;49.462;11.054;2023-04-01T00:46:50;96579.75;;;10.53;100.00
19447;BME280;9862;49.462;11.054;2023-04-01T00:49:21;96586.13;;;10.52;100.00
19447;BME280;9862;49.462;11.054;2023-04-01T00:51:52;96576.19;;;10.48;100.00
19447;BME280;9862;49.462;11.054;2023-04-01T00:54:21;96585.56;;;10.34;100.00
19447;BME280;9862;49.462;11.054;2023-04-01T00:56:52;96578.31;;;10.46;100.00
19447;BME280;9862;49.462;11.054;2023-04-01T00:59:25;96573.03;;;10.51;100.00
19447;BME280;9862;49.462;11.054;2023-04-01T01:01:56;96572.16;;;10.62;100.00
19447;BME280;9862;49.462;11.054;2023-04-01T01:04:24;96570.88;;;10.48;100.00
19447;BME280;9862;49.462;11.054;2023-04-01T01:06:57;96576.75;;;10.50;100.00
19447;BME280;9862;49.462;11.054;2023-04-01T01:09:31;96578.38;;;10.51;100.00
19447;BME280;9862;49.462;11.054;2023-04-01T01:12:05;96588.94;;;10.46;100.00
19447;BME280;9862;49.462;11.054;2023-04-01T01:14:45;96573.94;;;10.40;100.00
19447;BME280;9862;49.462;11.054;2023-04-01T01:17:21;96584.69;;;10.45;100.00
19447;BME280;9862;49.462;11.054;2023-04-01T01:20:10;96573.94;;;10.40;100.00
19447;BME280;9862;49.462;11.054;2023-04-01T01:22:53;96574.44;;;10.53;100.00
19447;BME280;9862;49.462;11.054;2023-04-01T01:25:32;96577.75;;;10.44;100.00
19447;BME280;9862;49.462;11.054;2023-04-01T01:28:16;96584.28;;;10.36;100.00
19447;BME280;9862;49.462;11.054;2023-04-01T01:30:53;96574.69;;;10.52;100.00
19447;BME280;9862;49.462;11.054;2023-04-01T01:33:42;96571.03;;;10.58;100.00
19447;BME280;9862;49.462;11.054;2023-04-01T01:36:15;96569.41;;;10.57;100.00
19447;BME280;9862;49.462;11.054;2023-04-01T01:38:44;96565.66;;;10.36;100.00
19447;BME280;9862;49.462;11.054;2023-04-01T01:41:13;96561.78;;;10.44;100.00
19447;BME280;9862;49.462;11.054;2023-04-01T01:43:44;96569.28;;;10.47;100.00
19447;BME280;9862;49.462;11.054;2023-04-01T01:46:18;96554.41;;;10.51;100.00
19447;BME280;9862;49.462;11.054;2023-04-01T01:48:46;96574.09;;;10.50;100.00
19447;BME280;9862;49.462;11.054;2023-04-01T01:51:15;96565.06;;;10.51;100.00
19447;BME280;9862;49.462;11.054;2023-04-01T01:53:42;96565.06;;;10.51;100.00
19447;BME280;9862;49.462;11.054;2023-04-01T01:56:10;96553.63;;;10.50;100.00
19447;BME280;9862;49.462;11.054;2023-04-01T01:58:39;96564.59;;;10.54;100.00
19447;BME280;9862;49.462;11.054;2023-04-01T02:01:13;96555.97;;;10.47;100.00
19447;BME280;9862;49.462;11.054;2023-04-01T02:03:42;96555.88;;;10.42;100.00
19447;BME280;9862;49.462;11.054;2023-04-01T02:06:11;96552.75;;;10.45;100.00
19447;BME280;9862;49.462;11.054;2023-04-01T02:08:44;96559.09;;;10.60;100.00
19447;BME280;9862;49.462;11.054;2023-04-01T02:11:13;96554.56;;;10.61;100.00
19447;BME280;9862;49.462;11.054;2023-04-01T02:13:47;96542.91;;;10.62;100.00
19447;BME280;9862;49.462;11.054;2023-04-01T02:16:31;96542.41;;;10.65;100.00
19447;BME280;9862;49.462;11.054;2023-04-01T02:19:01;96544.97;;;10.60;100.00
19447;BME280;9862;49.462;11.054;2023-04-01T02:21:33;96551.34;;;10.59;100.00
19447;BME280;9862;49.462;11.054;2023-04-01T02:24:06;96559.66;;;10.63;100.00
19447;BME280;9862;49.462;11.054;2023-04-01T02:26:34;96549.31;;;10.66;100.00
19447;BME280;9862;49.462;11.054;2023-04-01T02:29:03;96551.91;;;10.61;100.00
19447;BME280;9862;49.462;11.054;2023-04-01T02:31:32;96556.81;;;10.69;100.00
19447;BME280;9862;49.462;11.054;2023-04-01T02:33:58;96560.06;;;10.71;100.00
19447;BME280;9862;49.462;11.054;2023-04-01T02:36:25;96562.13;;;10.69;100.00
19447;BME280;9862;49.462;11.054;2023-04-01T02:38:53;96557.00;;;10.63;100.00
19447;BME280;9862;49.462;11.054;2023-04-01T02:41:23;96560.72;;;10.62;100.00
19447;BME280;9862;49.462;11.054;2023-04-01T02:43:50;96562.63;;;10.66;100.00
19447;BME280;9862;49.462;11.054;2023-04-01T02:46:17;96556.06;;;10.52;100.00
19447;BME280;9862;49.462;11.054;2023-04-01T02:48:43;96566.06;;;10.45;100.00
19447;BME280;9862;49.462;11.054;2023-04-01T02:51:10;96569.75;;;10.44;100.00
19447;BME280;9862;49.462;11.054;2023-04-01T02:53:37;96560.75;;;10.45;100.00
19447;BME280;9862;49.462;11.054;2023-04-01T02:56:04;96575.69;;;10.51;100.00
19447;BME280;9862;49.462;11.054;2023-04-01T02:58:32;96581.66;;;10.58;100.00
19447;BME280;9862;49.462;11.054;2023-04-01T03:00:58;96570.63;;;10.66;100.00
19447;BME280;9862;49.462;11.054;2023-04-01T03:03:25;96571.50;;;10.72;100.00
19447;BME280;9862;49.462;11.054;2023-04-01T03:05:51;96568.91;;;10.77;100.00
19447;BME280;9862;49.462;11.054;2023-04-01T03:08:20;96582.88;;;10.67;100.00
19447;BME280;9862;49.462;11.054;2023-04-01T03:10:47;96579.66;;;10.65;100.00
19447;BME280;9862;49.462;11.054;2023-04-01T03:13:13;96585.06;;;10.53;100.00
19447;BME280;9862;49.462;11.054;2023-04-01T03:15:41;96587.53;;;10.60;100.00
19447;BME280;9862;49.462;11.054;2023-04-01T03:18:08;96580.19;;;10.67;100.00
19447;BME280;9862;49.462;11.054;2023-04-01T03:20:34;96584.06;;;10.76;100.00
19447;BME280;9862;49.462;11.054;2023-04-01T03:23:01;96575.97;;;10.88;100.00
19447;BME280;9862;49.462;11.054;2023-04-01T03:25:27;96578.38;;;10.89;100.00
19447;BME280;9862;49.462;11.054;2023-04-01T03:27:55;96586.31;;;10.84;100.00
19447;BME280;9862;49.462;11.054;2023-04-01T03:30:24;96585.81;;;10.87;100.00
19447;BME280;9862;49.462;11.054;2023-04-01T03:32:52;96584.81;;;10.94;100.00
19447;BME280;9862;49.462;11.054;2023-04-01T03:35:19;96582.97;;;10.94;100.00
19447;BME280;9862;49.462;11.054;2023-04-01T03:37:46;96584.47;;;11.07;100.00
19447;BME280;9862;49.462;11.054;2023-04-01T03:40:13;96591.59;;;11.01;100.00
19447;BME280;9862;49.462;11.054;2023-04-01T03:42:39;96588.19;;;11.06;100.00
19447;BME280;9862;49.462;11.054;2023-04-01T03:45:06;96594.47;;;11.00;100.00
19447;BME280;9862;49.462;11.054;2023-04-01T03:47:33;96595.84;;;11.02;100.00
19447;BME280;9862;49.462;11.054;2023-04-01T03:50:01;96599.09;;;10.87;100.00
19447;BME280;9862;49.462;11.054;2023-04-01T03:52:27;96606.94;;;10.77;100.00
19447;BME280;9862;49.462;11.054;2023-04-01T03:54:54;96603.09;;;10.68;100.00
19447;BME280;9862;49.462;11.054;2023-04-01T03:57:21;96597.13;;;10.61;100.00
19447;BME280;9862;49.462;11.054;2023-04-01T03:59:47;96604.69;;;10.69;100.00
19447;BME280;9862;49.462;11.054;2023-04-01T04:02:14;96599.66;;;10.89;100.00
19447;BME280;9862;49.462;11.054;2023-04-01T04:04:40;96596.03;;;10.96;100.00
19447;BME280;9862;49.462;11.054;2023-04-01T04:07:09;96606.13;;;10.94;100.00
19447;BME280;9862;49.462;11.054;2023-04-01T04:09:35;96605.63;;;10.97;100.00
19447;BME280;9862;49.462;11.054;2023-04-01T04:12:02;96602.69;;;10.76;100.00
19447;BME280;9862;49.462;11.054;2023-04-01T04:14:30;96602.13;;;10.74;100.00
19447;BME280;9862;49.462;11.054;2023-04-01T04:16:57;96617.31;;;10.57;100.00
19447;BME280;9862;49.462;11.054;2023-04-01T04:19:23;96603.53;;;10.43;100.00
19447;BME280;9862;49.462;11.054;2023-04-01T04:21:50;96617.16;;;10.47;100.00
19447;BME280;9862;49.462;11.054;2023-04-01T04:24:18;96613.13;;;10.44;100.00
19447;BME280;9862;49.462;11.054;2023-04-01T04:26:44;96599.66;;;10.34;100.00
19447;BME280;9862;49.462;11.054;2023-04-01T04:29:11;96615.94;;;10.38;100.00
19447;BME280;9862;49.462;11.054;2023-04-01T04:31:37;96614.00;;;10.50;100.00
19447;BME280;9862;49.462;11.054;2023-04-01T04:34:04;96612.38;;;10.49;100.00
19447;BME280;9862;49.462;11.054;2023-04-01T04:36:30;96614.16;;;10.60;100.00
19447;BME280;9862;49.462;11.054;2023-04-01T04:38:57;96624.16;;;10.36;100.00
19447;BME280;9862;49.462;11.054;2023-04-01T04:41:28;96621.16;;;10.49;100.00
19447;BME280;9862;49.462;11.054;2023-04-01T04:43:56;96609.88;;;10.59;100.00
19447;BME280;9862;49.462;11.054;2023-04-01T04:46:23;96608.59;;;10.45;100.00
19447;BME280;9862;49.462;11.054;2023-04-01T04:48:50;96622.88;;;10.39;100.00
19447;BME280;9862;49.462;11.054;2023-04-01T04:51:18;96618.09;;;10.41;100.00
19447;BME280;9862;49.462;11.054;2023-04-01T04:53:45;96617.31;;;10.23;100.00
19447;BME280;9862;49.462;11.054;2023-04-01T04:56:12;96622.00;;;10.21;100.00
19447;BME280;9862;49.462;11.054;2023-04-01T04:58:40;96621.50;;;10.36;100.00
19447;BME280;9862;49.462;11.054;2023-04-01T05:01:08;96612.47;;;10.37;100.00
19447;BME280;9862;49.462;11.054;2023-04-01T05:03:36;96622.06;;;10.38;100.00
19447;BME280;9862;49.462;11.054;2023-04-01T05:06:03;96617.00;;;10.37;100.00
19447;BME280;9862;49.462;11.054;2023-04-01T05:08:29;96619.72;;;10.42;100.00
19447;BME280;9862;49.462;11.054;2023-04-01T05:10:56;96620.69;;;10.36;100.00
19447;BME280;9862;49.462;11.054;2023-04-01T05:13:22;96617.06;;;10.42;100.00
19447;BME280;9862;49.462;11.054;2023-04-01T05:15:50;96616.88;;;10.15;100.00
19447;BME280;9862;49.462;11.054;2023-04-01T05:18:17;96620.53;;;10.25;100.00
19447;BME280;9862;49.462;11.054;2023-04-01T05:20:47;96616.44;;;10.35;100.00
19447;BME280;9862;49.462;11.054;2023-04-01T05:23:14;96629.78;;;10.40;100.00
19447;BME280;9862;49.462;11.054;2023-04-01T05:25:41;96624.72;;;10.38;100.00
19447;BME280;9862;49.462;11.054;2023-04-01T05:28:08;96624.41;;;10.35;100.00
19447;BME280;9862;49.462;11.054;2023-04-01T05:30:34;96618.44;;;10.27;100.00
19447;BME280;9862;49.462;11.054;2023-04-01T05:33:02;96632.09;;;10.19;100.00
19447;BME280;9862;49.462;11.054;2023-04-01T05:35:29;96629.19;;;10.21;100.00
19447;BME280;9862;49.462;11.054;2023-04-01T05:37:55;96621.09;;;10.27;100.00
19447;BME280;9862;49.462;11.054;2023-04-01T05:40:23;96617.94;;;10.30;100.00
19447;BME280;9862;49.462;11.054;2023-04-01T05:42:49;96621.75;;;10.35;100.00
19447;BME280;9862;49.462;11.054;2023-04-01T05:45:16;96615.22;;;10.25;100.00
19447;BME280;9862;49.462;11.054;2023-04-01T05:47:42;96619.75;;;10.13;100.00
19447;BME280;9862;49.462;11.054;2023-04-01T05:50:11;96623.25;;;10.14;100.00
19447;BME280;9862;49.462;11.054;2023-04-01T05:52:38;96615.47;;;10.24;100.00
19447;BME280;9862;49.462;11.054;2023-04-01T05:55:05;96618.94;;;10.24;100.00
19447;BME280;9862;49.462;11.054;2023-04-01T05:57:32;96608.50;;;10.40;100.00
19447;BME280;9862;49.462;11.054;2023-04-01T05:59:58;96623.25;;;10.30;100.00
19447;BME280;9862;49.462;11.054;2023-04-01T06:02:25;96615.69;;;10.39;100.00
19447;BME280;9862;49.462;11.054;2023-04-01T06:04:59;96624.47;;;10.40;100.00
19447;BME280;9862;49.462;11.054;2023-04-01T06:07:30;96618.09;;;10.41;100.00
19447;BME280;9862;49.462;11.054;2023-04-01T06:09:56;96626.16;;;10.29;100.00
19447;BME280;9862;49.462;11.054;2023-04-01T06:12:32;96641.41;;;10.34;100.00
19447;BME280;9862;49.462;11.054;2023-04-01T06:15:20;96633.53;;;10.10;100.00
19447;BME280;9862;49.462;11.054;2023-04-01T06:18:03;96637.72;;;10.06;100.00
19447;BME280;9862;49.462;11.054;2023-04-01T06:20:41;96634.97;;;10.01;100.00
19447;BME280;9862;49.462;11.054;2023-04-01T06:23:21;96637.66;;;10.18;100.00
19447;BME280;9862;49.462;11.054;2023-04-01T06:25:56;96630.53;;;10.35;100.00
19447;BME280;9862;49.462;11.054;2023-04-01T06:28:48;96621.97;;;10.50;100.00
19447;BME280;9862;49.462;11.054;2023-04-01T06:31:36;96629.94;;;10.50;100.00
19447;BME280;9862;49.462;11.054;2023-04-01T06:34:24;96624.38;;;10.51;100.00
19447;BME280;9862;49.462;11.054;2023-04-01T06:37:09;96632.31;;;10.46;100.00
19447;BME280;9862;49.462;11.054;2023-04-01T06:40:07;96634.56;;;10.38;100.00
19447;BME280;9862;49.462;11.054;2023-04-01T06:42:49;96632.94;;;10.37;100.00
19447;BME280;9862;49.462;11.054;2023-04-01T06:45:28;96631.81;;;10.49;100.00
19447;BME280;9862;49.462;11.054;2023-04-01T06:48:10;96633.59;;;10.44;100.00
19447;BME280;9862;49.462;11.054;2023-04-01T06:50:44;96631.66;;;10.56;100.00
19447;BME280;9862;49.462;11.054;2023-04-01T06:53:18;96631.31;;;10.69;100.00
19447;BME280;9862;49.462;11.054;2023-04-01T06:55:52;96621.66;;;10.63;100.00
19447;BME280;9862;49.462;11.054;2023-04-01T06:58:21;96625.81;;;10.76;100.00
19447;BME280;9862;49.462;11.054;2023-04-01T07:00:51;96624.19;;;10.92;100.00
19447;BME280;9862;49.462;11.054;2023-04-01T07:03:21;96613.16;;;10.83;100.00
19447;BME280;9862;49.462;11.054;2023-04-01T07:05:49;96631.56;;;10.51;100.00
19447;BME280;9862;49.462;11.054;2023-04-01T07:08:18;96615.19;;;10.59;100.00
19447;BME280;9862;49.462;11.054;2023-04-01T07:10:51;96620.75;;;10.57;100.00
19447;BME280;9862;49.462;11.054;2023-04-01T07:13:22;96617.59;;;10.77;100.00
19447;BME280;9862;49.462;11.054;2023-04-01T07:15:58;96603.97;;;10.91;100.00
19447;BME280;9862;49.462;11.054;2023-04-01T07:18:31;96607.84;;;10.83;100.00
19447;BME280;9862;49.462;11.054;2023-04-01T07:20:59;96607.72;;;10.95;100.00
19447;BME280;9862;49.462;11.054;2023-04-01T07:23:32;96614.16;;;10.99;100.00
19447;BME280;9862;49.462;11.054;2023-04-01T07:26:11;96600.25;;;10.92;100.00
19447;BME280;9862;49.462;11.054;2023-04-01T07:28:40;96609.84;;;10.93;100.00
19447;BME280;9862;49.462;11.054;2023-04-01T07:31:15;96609.47;;;11.06;100.00
19447;BME280;9862;49.462;11.054;2023-04-01T07:33:52;96609.34;;;11.17;100.00
19447;BME280;9862;49.462;11.054;2023-04-01T07:36:25;96601.69;;;11.21;100.00
19447;BME280;9862;49.462;11.054;2023-04-01T07:39:03;96610.34;;;11.33;100.00
19447;BME280;9862;49.462;11.054;2023-04-01T07:41:43;96599.88;;;11.27;100.00
19447;BME280;9862;49.462;11.054;2023-04-01T07:44:23;96623.00;;;11.21;100.00
19447;BME280;9862;49.462;11.054;2023-04-01T07:47:08;96621.44;;;11.25;100.00
19447;BME280;9862;49.462;11.054;2023-04-01T07:49:44;96609.25;;;11.29;100.00
19447;BME280;9862;49.462;11.054;2023-04-01T07:52:19;96609.69;;;11.21;100.00
19447;BME280;9862;49.462;11.054;2023-04-01T07:54:49;96623.84;;;11.05;100.00
19447;BME280;9862;49.462;11.054;2023-04-01T07:57:21;96630.41;;;11.19;100.00
19447;BME280;9862;49.462;11.054;2023-04-01T07:59:57;96633.56;;;11.38;100.00
19447;BME280;9862;49.462;11.054;2023-04-01T08:02:33;96626.34;;;11.33;100.00
19447;BME280;9862;49.462;11.054;2023-04-01T08:05:16;96624.03;;;11.42;100.00
19447;BME280;9862;49.462;11.054;2023-04-01T08:07:49;96632.59;;;11.44;100.00
19447;BME280;9862;49.462;11.054;2023-04-01T08:10:21;96635.00;;;11.45;100.00
19447;BME280;9862;49.462;11.054;2023-04-01T08:13:02;96625.72;;;11.26;100.00
19447;BME280;9862;49.462;11.054;2023-04-01T08:15:37;96622.63;;;11.34;100.00
19447;BME280;9862;49.462;11.054;2023-04-01T08:18:15;96627.22;;;11.39;100.00
19447;BME280;9862;49.462;11.054;2023-04-01T08:20:48;96633.56;;;11.38;100.00
19447;BME280;9862;49.462;11.054;2023-04-01T08:23:19;96629.97;;;11.27;100.00
19447;BME280;9862;49.462;11.054;2023-04-01T08:25:51;96614.91;;;11.38;100.00
19447;BME280;9862;49.462;11.054;2023-04-01T08:28:25;96630.22;;;11.47;100.00
19447;BME280;9862;49.462;11.054;2023-04-01T08:30:58;96624.78;;;11.59;100.00
19447;BME280;9862;49.462;11.054;2023-04-01T08:33:28;96632.53;;;11.61;100.00
19447;BME280;9862;49.462;11.054;2023-04-01T08:35:59;96621.75;;;11.51;100.00
19447;BME280;9862;49.462;11.054;2023-04-01T08:38:31;96615.63;;;11.50;100.00
19447;BME280;9862;49.462;11.054;2023-04-01T08:44:18;96625.72;;;11.26;100.00
19447;BME280;9862;49.462;11.054;2023-04-01T08:50:08;96612.69;;;11.52;100.00
19447;BME280;9862;49.462;11.054;2023-04-01T08:52:42;96608.47;;;11.56;100.00
19447;BME280;9862;49.462;11.054;2023-04-01T08:55:25;96616.16;;;11.52;100.00
19447;BME280;9862;49.462;11.054;2023-04-01T08:58:11;96620.84;;;11.40;100.00
19447;BME280;9862;49.462;11.054;2023-04-01T09:00:50;96614.19;;;11.42;100.00
19447;BME280;9862;49.462;11.054;2023-04-01T09:03:30;96617.66;;;11.43;100.00
19447;BME280;9862;49.462;11.054;2023-04-01T09:06:24;96619.75;;;11.19;100.00
19447;BME280;9862;49.462;11.054;2023-04-01T09:09:18;96629.50;;;11.30;100.00
19447;BME280;9862;49.462;11.054;2023-04-01T09:12:10;96623.59;;;11.28;100.00
19447;BME280;9862;49.462;11.054;2023-04-01T09:18:04;96620.63;;;11.46;100.00
19447;BME280;9862;49.462;11.054;2023-04-01T09:20:44;96621.19;;;11.49;100.00
19447;BME280;9862;49.462;11.054;2023-04-01T09:23:33;96610.78;;;11.47;100.00
19447;BME280;9862;49.462;11.054;2023-04-01T09:26:29;96616.09;;;11.47;100.00
19447;BME280;9862;49.462;11.054;2023-04-01T09:29:03;96613.31;;;11.59;100.00
19447;BME280;9862;49.462;11.054;2023-04-01T09:31:45;96615.47;;;11.62;100.00
19447;BME280;9862;49.462;11.054;2023-04-01T09:34:25;96624.47;;;11.56;100.00
19447;BME280;9862;49.462;11.054;2023-04-01T09:37:07;96605.88;;;11.61;100.00
19447;BME280;9862;49.462;11.054;2023-04-01T09:39:48;96614.22;;;11.69;100.00
19447;BME280;9862;49.462;11.054;2023-04-01T09:42:38;96620.25;;;11.82;100.00
19447;BME280;9862;49.462;11.054;2023-04-01T09:45:13;96615.81;;;11.92;100.00
19447;BME280;9862;49.462;11.054;2023-04-01T09:47:53;96631.47;;;11.84;100.00
19447;BME280;9862;49.462;11.054;2023-04-01T09:50:32;96624.56;;;11.66;100.00
19447;BME280;9862;49.462;11.054;2023-04-01T09:53:09;96619.50;;;11.64;100.00
19447;BME280;9862;49.462;11.054;2023-04-01T09:56:03;96640.09;;;11.69;100.00
19447;BME280;9862;49.462;11.054;2023-04-01T10:01:48;96628.78;;;11.18;100.00
19447;BME280;9862;49.462;11.054;2023-04-01T10:04:44;96638.50;;;11.07;100.00
19447;BME280;9862;49.462;11.054;2023-04-01T10:07:49;96654.72;;;11.06;100.00
19447;BME280;9862;49.462;11.054;2023-04-01T10:10:39;96647.03;;;11.09;100.00
19447;BME280;9862;49.462;11.054;2023-04-01T10:13:48;96658.59;;;11.15;100.00
19447;BME280;9862;49.462;11.054;2023-04-01T10:19:49;96653.53;;;10.80;100.00
19447;BME280;9862;49.462;11.054;2023-04-01T10:22:37;96647.41;;;10.96;100.00
19447;BME280;9862;49.462;11.054;2023-04-01T10:25:31;96637.50;;;10.92;100.00
19447;BME280;9862;49.462;11.054;2023-04-01T10:28:18;96646.50;;;11.07;100.00
19447;BME280;9862;49.462;11.054;2023-04-01T10:31:06;96642.38;;;11.00;100.00
19447;BME280;9862;49.462;11.054;2023-04-01T10:36:59;96644.84;;;10.84;100.00
19447;BME280;9862;49.462;11.054;2023-04-01T10:39:38;96649.03;;;10.80;100.00
19447;BME280;9862;49.462;11.054;2023-04-01T10:42:45;96641.22;;;10.91;100.00
19447;BME280;9862;49.462;11.054;2023-04-01T10:45:43;96640.50;;;10.78;100.00
19447;BME280;9862;49.462;11.054;2023-04-01T10:48:30;96644.03;;;10.84;100.00
19447;BME280;9862;49.462;11.054;2023-04-01T10:51:17;96637.38;;;10.81;100.00
19447;BME280;9862;49.462;11.054;2023-04-01T10:56:49;96639.84;;;10.88;100.00
19447;BME280;9862;49.462;11.054;2023-04-01T10:59:42;96637.06;;;11.00;100.00
19447;BME280;9862;49.462;11.054;2023-04-01T11:12:05;96636.91;;;10.89;100.00
19447;BME280;9862;49.462;11.054;2023-04-01T11:15:15;96642.84;;;11.57;100.00
19447;BME280;9862;49.462;11.054;2023-04-01T11:18:29;96632.91;;;11.96;100.00
19447;BME280;9862;49.462;11.054;2023-04-01T11:21:21;96641.47;;;11.50;100.00
19447;BME280;9862;49.462;11.054;2023-04-01T11:24:08;96642.19;;;11.23;100.00
19447;BME280;9862;49.462;11.054;2023-04-01T11:26:49;96644.34;;;11.04;100.00
19447;BME280;9862;49.462;11.054;2023-04-01T11:29:41;96652.06;;;11.06;100.00
19447;BME280;9862;49.462;11.054;2023-04-01T11:32:26;96647.50;;;11.01;100.00
19447;BME280;9862;49.462;11.054;2023-04-01T11:35:04;96645.00;;;10.95;100.00
19447;BME280;9862;49.462;11.054;2023-04-01T11:37:43;96651.63;;;10.75;100.00
19447;BME280;9862;49.462;11.054;2023-04-01T11:40:22;96652.44;;;10.59;100.00
19447;BME280;9862;49.462;11.054;2023-04-01T11:42:57;96654.38;;;10.64;100.00
19447;BME280;9862;49.462;11.054;2023-04-01T11:45:35;96649.53;;;10.77;100.00
19447;BME280;9862;49.462;11.054;2023-04-01T11:48:25;96656.47;;;10.78;100.00
19447;BME280;9862;49.462;11.054;2023-04-01T11:51:16;96655.34;;;10.91;100.00
19447;BME280;9862;49.462;11.054;2023-04-01T11:53:54;96657.66;;;10.71;100.00
19447;BME280;9862;49.462;11.054;2023-04-01T11:56:48;96655.50;;;10.84;100.00
19447;BME280;9862;49.462;11.054;2023-04-01T11:59:37;96652.75;;;10.79;100.00
19447;BME280;9862;49.462;11.054;2023-04-01T12:02:11;96656.97;;;10.75;100.00
19447;BME280;9862;49.462;11.054;2023-04-01T12:04:58;96661.47;;;10.58;100.00
19447;BME280;9862;49.462;11.054;2023-04-01T12:07:49;96662.91;;;10.49;100.00
19447;BME280;9862;49.462;11.054;2023-04-01T12:10:19;96670.34;;;10.47;100.00
19447;BME280;9862;49.462;11.054;2023-04-01T12:12:53;96667.50;;;10.70;100.00
19447;BME280;9862;49.462;11.054;2023-04-01T12:15:29;96668.25;;;10.66;100.00
19447;BME280;9862;49.462;11.054;2023-04-01T12:18:05;96675.50;;;10.70;100.00
19447;BME280;9862;49.462;11.054;2023-04-01T12:20:45;96675.28;;;10.72;100.00
19447;BME280;9862;49.462;11.054;2023-04-01T12:23:39;96669.16;;;10.71;100.00
19447;BME280;9862;49.462;11.054;2023-04-01T12:26:30;96662.78;;;10.72;100.00
19447;BME280;9862;49.462;11.054;2023-04-01T12:29:12;96663.63;;;10.61;100.00
19447;BME280;9862;49.462;11.054;2023-04-01T12:31:52;96665.34;;;10.67;100.00
19447;BME280;9862;49.462;11.054;2023-04-01T12:34:44;96671.06;;;10.59;100.00
19447;BME280;9862;49.462;11.054;2023-04-01T12:37:19;96678.25;;;10.58;100.00
19447;BME280;9862;49.462;11.054;2023-04-01T12:39:59;96679.69;;;10.66;100.00
19447;BME280;9862;49.462;11.054;2023-04-01T12:42:43;96673.56;;;10.82;100.00
19447;BME280;9862;49.462;11.054;2023-04-01T12:45:26;96667.34;;;10.60;100.00
19447;BME280;9862;49.462;11.054;2023-04-01T12:48:38;96672.59;;;10.55;100.00
19447;BME280;9862;49.462;11.054;2023-04-01T12:54:44;96672.72;;;10.99;100.00
19447;BME280;9862;49.462;11.054;2023-04-01T12:57:28;96661.47;;;10.92;100.00
19447;BME280;9862;49.462;11.054;2023-04-01T13:00:11;96667.53;;;11.09;100.00
19447;BME280;9862;49.462;11.054;2023-04-01T13:02:50;96660.34;;;11.09;100.00
19447;BME280;9862;49.462;11.054;2023-04-01T13:05:40;96652.47;;;11.14;100.00
19447;BME280;9862;49.462;11.054;2023-04-01T13:08:30;96662.47;;;11.07;100.00
19447;BME280;9862;49.462;11.054;2023-04-01T13:11:09;96663.09;;;11.14;100.00
19447;BME280;9862;49.462;11.054;2023-04-01T13:16:42;96664.13;;;11.30;100.00
19447;BME280;9862;49.462;11.054;2023-04-01T13:19:17;96672.25;;;11.02;100.00
19447;BME280;9862;49.462;11.054;2023-04-01T13:21:52;96681.47;;;10.94;100.00
19447;BME280;9862;49.462;11.054;2023-04-01T13:24:31;96674.19;;;10.89;100.00
19447;BME280;9862;49.462;11.054;2023-04-01T13:27:09;96677.44;;;10.92;100.00
19447;BME280;9862;49.462;11.054;2023-04-01T13:29:42;96662.06;;;10.99;100.00
19447;BME280;9862;49.462;11.054;2023-04-01T13:32:23;96673.63;;;10.87;100.00
19447;BME280;9862;49.462;11.054;2023-04-01T13:35:08;96674.13;;;10.84;100.00
19447;BME280;9862;49.462;11.054;2023-04-01T13:37:51;96671.25;;;11.08;100.00
19447;BME280;9862;49.462;11.054;2023-04-01T13:40:34;96668.72;;;11.18;100.00
19447;BME280;9862;49.462;11.054;2023-04-01T13:43:11;96672.41;;;11.12;100.00
19447;BME280;9862;49.462;11.054;2023-04-01T13:45:53;96676.53;;;10.86;100.00
19447;BME280;9862;49.462;11.054;2023-04-01T13:48:58;96672.03;;;10.86;100.00
19447;BME280;9862;49.462;11.054;2023-04-01T13:51:52;96673.38;;;11.06;100.00
19447;BME280;9862;49.462;11.054;2023-04-01T13:54:36;96683.19;;;11.22;100.00
19447;BME280;9862;49.462;11.054;2023-04-01T13:57:20;96669.19;;;11.10;100.00
19447;BME280;9862;49.462;11.054;2023-04-01T14:00:03;96681.09;;;11.07;100.00
19447;BME280;9862;49.462;11.054;2023-04-01T14:02:46;96681.28;;;11.01;100.00
19447;BME280;9862;49.462;11.054;2023-04-01T14:05:32;96693.22;;;10.98;100.00
19447;BME280;9862;49.462;11.054;2023-04-01T14:08:10;96691.28;;;11.10;100.00
19447;BME280;9862;49.462;11.054;2023-04-01T14:10:43;96685.72;;;11.12;100.00
19447;BME280;9862;49.462;11.054;2023-04-01T14:13:18;96683.91;;;11.17;100.00